sensor_id;sensor_type;location;lat;lon;timestamp;P1;durP1;ratioP1;P2;durP2;ratioP2
32780;SDS011;19136;47.032;15.502;2022-09-20T00:01:18;9.10;;;1.02;;
32780;SDS011;19136;47.032;15.502;2022-09-20T00:03:46;2.67;;;1.20;;
32780;SDS011;19136;47.032;15.502;2022-09-20T00:06:14;5.13;;;0.98;;
32780;SDS011;19136;47.032;15.502;2022-09-20T00:08:41;1.48;;;0.85;;
32780;SDS011;19136;47.032;15.502;2022-09-20T00:11:08;7.53;;;1.27;;
32780;SDS011;19136;47.032;15.502;2022-09-20T00:13:36;1.92;;;0.88;;
32780;SDS011;19136;47.032;15.502;2022-09-20T00:16:07;4.53;;;1.15;;
32780;SDS011;19136;47.032;15.502;2022-09-20T00:18:36;1.70;;;0.70;;
32780;SDS011;19136;47.032;15.502;2022-09-20T00:21:02;3.08;;;0.98;;
32780;SDS011;19136;47.032;15.502;2022-09-20T00:23:28;4.18;;;0.73;;
32780;SDS011;19136;47.032;15.502;2022-09-20T00:26:03;2.55;;;1.05;;
32780;SDS011;19136;47.032;15.502;2022-09-20T00:28:28;1.90;;;0.70;;
32780;SDS011;19136;47.032;15.502;2022-09-20T00:30:55;3.08;;;0.70;;
32780;SDS011;19136;47.032;15.502;2022-09-20T00:33:22;3.00;;;0.90;;
32780;SDS011;19136;47.032;15.502;2022-09-20T00:35:48;3.75;;;0.73;;
32780;SDS011;19136;47.032;15.502;2022-09-20T00:38:14;2.83;;;0.63;;
32780;SDS011;19136;47.032;15.502;2022-09-20T00:40:40;2.55;;;0.93;;
32780;SDS011;19136;47.032;15.502;2022-09-20T00:43:09;5.63;;;1.00;;
32780;SDS011;19136;47.032;15.502;2022-09-20T00:45:38;3.13;;;0.85;;
32780;SDS011;19136;47.032;15.502;2022-09-20T00:50:44;2.33;;;0.82;;
32780;SDS011;19136;47.032;15.502;2022-09-20T00:53:13;2.78;;;0.90;;
32780;SDS011;19136;47.032;15.502;2022-09-20T00:55:49;1.90;;;1.05;;
32780;SDS011;19136;47.032;15.502;2022-09-20T00:58:19;2.58;;;1.20;;
32780;SDS011;19136;47.032;15.502;2022-09-20T01:00:46;3.42;;;1.13;;
32780;SDS011;19136;47.032;15.502;2022-09-20T01:03:13;3.95;;;0.93;;
32780;SDS011;19136;47.032;15.502;2022-09-20T01:05:40;3.58;;;1.10;;
32780;SDS011;19136;47.032;15.502;2022-09-20T01:08:06;2.65;;;1.00;;
32780;SDS011;19136;47.032;15.502;2022-09-20T01:10:32;2.60;;;0.93;;
32780;SDS011;19136;47.032;15.502;2022-09-20T01:12:58;1.65;;;0.90;;
32780;SDS011;19136;47.032;15.502;2022-09-20T01:15:23;2.83;;;0.90;;
32780;SDS011;19136;47.032;15.502;2022-09-20T01:17:52;2.97;;;1.10;;
32780;SDS011;19136;47.032;15.502;2022-09-20T01:20:29;2.83;;;1.30;;
32780;SDS011;19136;47.032;15.502;2022-09-20T01:26:01;5.88;;;2.58;;
32780;SDS011;19136;47.032;15.502;2022-09-20T01:28:32;2.38;;;0.90;;
32780;SDS011;19136;47.032;15.502;2022-09-20T01:36:22;3.67;;;1.27;;
32780;SDS011;19136;47.032;15.502;2022-09-20T01:39:05;4.05;;;1.20;;
32780;SDS011;19136;47.032;15.502;2022-09-20T01:41:53;2.00;;;1.10;;
32780;SDS011;19136;47.032;15.502;2022-09-20T01:44:38;2.20;;;1.10;;
32780;SDS011;19136;47.032;15.502;2022-09-20T01:56:08;7.95;;;1.58;;
32780;SDS011;19136;47.032;15.502;2022-09-20T02:24:34;2.33;;;1.27;;
32780;SDS011;19136;47.032;15.502;2022-09-20T02:32:55;1.60;;;1.27;;
32780;SDS011;19136;47.032;15.502;2022-09-20T02:41:07;4.28;;;1.45;;
32780;SDS011;19136;47.032;15.502;2022-09-20T02:49:40;4.60;;;1.40;;
32780;SDS011;19136;47.032;15.502;2022-09-20T02:52:42;8.23;;;1.35;;
32780;SDS011;19136;47.032;15.502;2022-09-20T03:03:48;4.22;;;1.30;;
32780;SDS011;19136;47.032;15.502;2022-09-20T03:12:18;2.58;;;1.40;;
32780;SDS011;19136;47.032;15.502;2022-09-20T03:39:56;3.17;;;1.20;;
32780;SDS011;19136;47.032;15.502;2022-09-20T03:50:46;2.38;;;1.00;;
32780;SDS011;19136;47.032;15.502;2022-09-20T03:56:27;3.17;;;1.13;;
32780;SDS011;19136;47.032;15.502;2022-09-20T03:59:11;2.45;;;1.13;;
32780;SDS011;19136;47.032;15.502;2022-09-20T04:02:07;2.85;;;1.20;;
32780;SDS011;19136;47.032;15.502;2022-09-20T04:05:15;4.40;;;1.45;;
32780;SDS011;19136;47.032;15.502;2022-09-20T04:11:05;6.13;;;3.83;;
32780;SDS011;19136;47.032;15.502;2022-09-20T04:19:09;5.82;;;2.10;;
32780;SDS011;19136;47.032;15.502;2022-09-20T04:26:49;4.13;;;1.90;;
32780;SDS011;19136;47.032;15.502;2022-09-20T04:34:30;5.13;;;2.08;;
32780;SDS011;19136;47.032;15.502;2022-09-20T04:37:31;6.03;;;1.92;;
32780;SDS011;19136;47.032;15.502;2022-09-20T04:40:42;4.00;;;1.85;;
32780;SDS011;19136;47.032;15.502;2022-09-20T04:45:59;3.85;;;2.20;;
32780;SDS011;19136;47.032;15.502;2022-09-20T04:48:43;4.40;;;2.28;;
32780;SDS011;19136;47.032;15.502;2022-09-20T04:57:10;7.85;;;2.50;;
32780;SDS011;19136;47.032;15.502;2022-09-20T05:02:35;12.00;;;2.72;;
32780;SDS011;19136;47.032;15.502;2022-09-20T05:05:39;6.50;;;2.22;;
32780;SDS011;19136;47.032;15.502;2022-09-20T05:19:56;10.48;;;2.97;;
32780;SDS011;19136;47.032;15.502;2022-09-20T05:25:57;7.80;;;2.95;;
32780;SDS011;19136;47.032;15.502;2022-09-20T05:39:39;7.88;;;3.67;;
32780;SDS011;19136;47.032;15.502;2022-09-20T05:42:19;11.55;;;3.50;;
32780;SDS011;19136;47.032;15.502;2022-09-20T05:45:15;13.13;;;5.20;;
32780;SDS011;19136;47.032;15.502;2022-09-20T05:47:56;13.77;;;4.82;;
32780;SDS011;19136;47.032;15.502;2022-09-20T06:03:49;11.65;;;3.67;;
32780;SDS011;19136;47.032;15.502;2022-09-20T06:22:36;5.30;;;2.75;;
32780;SDS011;19136;47.032;15.502;2022-09-20T06:27:41;7.80;;;2.75;;
32780;SDS011;19136;47.032;15.502;2022-09-20T06:30:17;11.30;;;3.17;;
32780;SDS011;19136;47.032;15.502;2022-09-20T06:32:52;9.45;;;2.50;;
32780;SDS011;19136;47.032;15.502;2022-09-20T06:35:56;15.70;;;2.95;;
32780;SDS011;19136;47.032;15.502;2022-09-20T06:41:42;7.03;;;3.17;;
32780;SDS011;19136;47.032;15.502;2022-09-20T06:44:08;6.93;;;3.00;;
32780;SDS011;19136;47.032;15.502;2022-09-20T06:46:34;13.32;;;2.90;;
32780;SDS011;19136;47.032;15.502;2022-09-20T06:49:05;7.07;;;2.85;;
32780;SDS011;19136;47.032;15.502;2022-09-20T06:51:34;8.90;;;2.35;;
32780;SDS011;19136;47.032;15.502;2022-09-20T06:54:03;15.57;;;2.47;;
32780;SDS011;19136;47.032;15.502;2022-09-20T06:56:30;12.52;;;2.33;;
32780;SDS011;19136;47.032;15.502;2022-09-20T06:59:01;7.57;;;2.40;;
32780;SDS011;19136;47.032;15.502;2022-09-20T07:01:34;6.63;;;2.58;;
32780;SDS011;19136;47.032;15.502;2022-09-20T07:04:00;5.07;;;2.50;;
32780;SDS011;19136;47.032;15.502;2022-09-20T07:06:33;7.85;;;2.58;;
32780;SDS011;19136;47.032;15.502;2022-09-20T07:08:58;9.95;;;2.72;;
32780;SDS011;19136;47.032;15.502;2022-09-20T07:11:24;6.63;;;2.65;;
32780;SDS011;19136;47.032;15.502;2022-09-20T07:13:54;6.50;;;2.42;;
32780;SDS011;19136;47.032;15.502;2022-09-20T07:16:21;4.25;;;2.33;;
32780;SDS011;19136;47.032;15.502;2022-09-20T07:18:46;3.97;;;1.98;;
32780;SDS011;19136;47.032;15.502;2022-09-20T07:21:14;4.75;;;2.00;;
32780;SDS011;19136;47.032;15.502;2022-09-20T07:23:40;6.07;;;1.98;;
32780;SDS011;19136;47.032;15.502;2022-09-20T07:26:06;9.68;;;2.40;;
32780;SDS011;19136;47.032;15.502;2022-09-20T07:28:44;8.32;;;2.15;;
32780;SDS011;19136;47.032;15.502;2022-09-20T07:31:10;11.02;;;2.30;;
32780;SDS011;19136;47.032;15.502;2022-09-20T07:33:35;6.55;;;2.05;;
32780;SDS011;19136;47.032;15.502;2022-09-20T07:36:01;4.50;;;1.67;;
32780;SDS011;19136;47.032;15.502;2022-09-20T07:38:26;4.22;;;1.25;;
32780;SDS011;19136;47.032;15.502;2022-09-20T07:40:56;9.13;;;1.85;;
32780;SDS011;19136;47.032;15.502;2022-09-20T07:43:23;6.82;;;1.65;;
32780;SDS011;19136;47.032;15.502;2022-09-20T07:45:52;1.88;;;0.65;;
32780;SDS011;19136;47.032;15.502;2022-09-20T07:48:27;1.40;;;0.60;;
32780;SDS011;19136;47.032;15.502;2022-09-20T07:50:56;2.97;;;0.60;;
32780;SDS011;19136;47.032;15.502;2022-09-20T07:53:31;4.38;;;0.90;;
32780;SDS011;19136;47.032;15.502;2022-09-20T07:55:58;3.45;;;1.60;;
32780;SDS011;19136;47.032;15.502;2022-09-20T07:58:25;4.97;;;2.13;;
32780;SDS011;19136;47.032;15.502;2022-09-20T08:00:52;2.17;;;0.60;;
32780;SDS011;19136;47.032;15.502;2022-09-20T08:03:18;4.13;;;1.30;;
32780;SDS011;19136;47.032;15.502;2022-09-20T08:05:44;3.72;;;1.80;;
32780;SDS011;19136;47.032;15.502;2022-09-20T08:08:09;3.78;;;1.23;;
32780;SDS011;19136;47.032;15.502;2022-09-20T08:10:36;3.40;;;1.00;;
32780;SDS011;19136;47.032;15.502;2022-09-20T08:13:05;4.20;;;1.85;;
32780;SDS011;19136;47.032;15.502;2022-09-20T08:15:31;4.55;;;1.17;;
32780;SDS011;19136;47.032;15.502;2022-09-20T08:17:57;1.48;;;0.77;;
32780;SDS011;19136;47.032;15.502;2022-09-20T08:20:22;2.13;;;0.77;;
32780;SDS011;19136;47.032;15.502;2022-09-20T08:22:48;1.98;;;0.60;;
32780;SDS011;19136;47.032;15.502;2022-09-20T08:25:13;1.95;;;0.85;;
32780;SDS011;19136;47.032;15.502;2022-09-20T08:27:42;2.50;;;0.40;;
32780;SDS011;19136;47.032;15.502;2022-09-20T08:30:08;2.53;;;0.50;;
32780;SDS011;19136;47.032;15.502;2022-09-20T08:32:34;3.03;;;0.40;;
32780;SDS011;19136;47.032;15.502;2022-09-20T08:34:59;8.65;;;0.70;;
32780;SDS011;19136;47.032;15.502;2022-09-20T08:37:25;4.32;;;0.93;;
32780;SDS011;19136;47.032;15.502;2022-09-20T08:39:50;2.10;;;0.30;;
32780;SDS011;19136;47.032;15.502;2022-09-20T08:42:29;1.90;;;0.30;;
32780;SDS011;19136;47.032;15.502;2022-09-20T08:44:58;0.50;;;0.25;;
32780;SDS011;19136;47.032;15.502;2022-09-20T08:47:31;0.40;;;0.25;;
32780;SDS011;19136;47.032;15.502;2022-09-20T08:49:59;0.38;;;0.30;;
32780;SDS011;19136;47.032;15.502;2022-09-20T08:52:29;1.20;;;0.30;;
32780;SDS011;19136;47.032;15.502;2022-09-20T08:54:56;0.60;;;0.30;;
32780;SDS011;19136;47.032;15.502;2022-09-20T08:57:23;0.25;;;0.20;;
32780;SDS011;19136;47.032;15.502;2022-09-20T08:59:52;0.70;;;0.20;;
32780;SDS011;19136;47.032;15.502;2022-09-20T09:02:19;1.05;;;0.30;;
32780;SDS011;19136;47.032;15.502;2022-09-20T09:04:46;0.90;;;0.35;;
32780;SDS011;19136;47.032;15.502;2022-09-20T09:07:13;0.30;;;0.20;;
32780;SDS011;19136;47.032;15.502;2022-09-20T09:09:41;0.20;;;0.10;;
32780;SDS011;19136;47.032;15.502;2022-09-20T09:15:11;2.05;;;0.30;;
32780;SDS011;19136;47.032;15.502;2022-09-20T09:17:45;4.83;;;0.20;;
32780;SDS011;19136;47.032;15.502;2022-09-20T09:20:15;0.20;;;0.20;;
32780;SDS011;19136;47.032;15.502;2022-09-20T09:22:46;0.45;;;0.10;;
32780;SDS011;19136;47.032;15.502;2022-09-20T09:30:35;0.22;;;0.20;;
32780;SDS011;19136;47.032;15.502;2022-09-20T09:33:24;0.10;;;0.10;;
32780;SDS011;19136;47.032;15.502;2022-09-20T09:38:22;0.30;;;0.13;;
32780;SDS011;19136;47.032;15.502;2022-09-20T09:40:57;0.55;;;0.15;;
32780;SDS011;19136;47.032;15.502;2022-09-20T09:43:25;4.93;;;0.30;;
32780;SDS011;19136;47.032;15.502;2022-09-20T09:48:47;0.10;;;0.10;;
32780;SDS011;19136;47.032;15.502;2022-09-20T09:51:29;0.32;;;0.10;;
32780;SDS011;19136;47.032;15.502;2022-09-20T09:53:56;0.20;;;0.10;;
32780;SDS011;19136;47.032;15.502;2022-09-20T09:56:31;0.10;;;0.10;;
32780;SDS011;19136;47.032;15.502;2022-09-20T09:59:11;0.43;;;0.20;;
32780;SDS011;19136;47.032;15.502;2022-09-20T10:12:37;2.75;;;0.20;;
32780;SDS011;19136;47.032;15.502;2022-09-20T10:20:49;0.65;;;0.10;;
32780;SDS011;19136;47.032;15.502;2022-09-20T10:36:49;2.13;;;0.20;;
32780;SDS011;19136;47.032;15.502;2022-09-20T10:39:30;0.38;;;0.17;;
32780;SDS011;19136;47.032;15.502;2022-09-20T10:44:51;0.35;;;0.17;;
32780;SDS011;19136;47.032;15.502;2022-09-20T10:47:30;1.17;;;0.22;;
32780;SDS011;19136;47.032;15.502;2022-09-20T10:52:50;0.17;;;0.10;;
32780;SDS011;19136;47.032;15.502;2022-09-20T10:55:45;0.82;;;0.20;;
32780;SDS011;19136;47.032;15.502;2022-09-20T11:09:02;0.50;;;0.20;;
32780;SDS011;19136;47.032;15.502;2022-09-20T11:11:33;0.45;;;0.20;;
32780;SDS011;19136;47.032;15.502;2022-09-20T11:14:14;0.43;;;0.20;;
32780;SDS011;19136;47.032;15.502;2022-09-20T11:17:02;0.17;;;0.17;;
32780;SDS011;19136;47.032;15.502;2022-09-20T11:22:23;1.17;;;0.20;;
32780;SDS011;19136;47.032;15.502;2022-09-20T11:25:05;3.17;;;0.22;;
32780;SDS011;19136;47.032;15.502;2022-09-20T11:30:18;0.52;;;0.20;;
32780;SDS011;19136;47.032;15.502;2022-09-20T11:32:55;0.10;;;0.10;;
32780;SDS011;19136;47.032;15.502;2022-09-20T11:35:44;2.67;;;0.20;;
32780;SDS011;19136;47.032;15.502;2022-09-20T11:38:30;3.10;;;0.28;;
32780;SDS011;19136;47.032;15.502;2022-09-20T11:41:11;0.17;;;0.17;;
32780;SDS011;19136;47.032;15.502;2022-09-20T11:46:10;0.77;;;0.30;;
32780;SDS011;19136;47.032;15.502;2022-09-20T11:56:49;0.35;;;0.20;;
32780;SDS011;19136;47.032;15.502;2022-09-20T12:01:54;0.65;;;0.20;;
32780;SDS011;19136;47.032;15.502;2022-09-20T12:04:30;1.63;;;0.70;;
32780;SDS011;19136;47.032;15.502;2022-09-20T12:07:22;2.10;;;0.40;;
32780;SDS011;19136;47.032;15.502;2022-09-20T12:09:53;7.63;;;2.10;;
32780;SDS011;19136;47.032;15.502;2022-09-20T12:12:40;0.50;;;0.30;;
32780;SDS011;19136;47.032;15.502;2022-09-20T12:23:41;1.27;;;0.30;;
32780;SDS011;19136;47.032;15.502;2022-09-20T12:26:01;0.68;;;0.20;;
32780;SDS011;19136;47.032;15.502;2022-09-20T12:28:31;0.75;;;0.32;;
32780;SDS011;19136;47.032;15.502;2022-09-20T12:47:04;0.30;;;0.20;;
32780;SDS011;19136;47.032;15.502;2022-09-20T12:57:52;0.70;;;0.40;;
32780;SDS011;19136;47.032;15.502;2022-09-20T13:00:27;0.60;;;0.30;;
32780;SDS011;19136;47.032;15.502;2022-09-20T13:02:58;1.73;;;0.50;;
32780;SDS011;19136;47.032;15.502;2022-09-20T13:05:37;0.57;;;0.40;;
32780;SDS011;19136;47.032;15.502;2022-09-20T13:10:39;0.85;;;0.40;;
32780;SDS011;19136;47.032;15.502;2022-09-20T13:13:14;1.38;;;0.28;;
32780;SDS011;19136;47.032;15.502;2022-09-20T13:15:52;0.63;;;0.30;;
32780;SDS011;19136;47.032;15.502;2022-09-20T13:18:18;0.80;;;0.30;;
32780;SDS011;19136;47.032;15.502;2022-09-20T13:20:44;1.88;;;0.40;;
32780;SDS011;19136;47.032;15.502;2022-09-20T13:23:17;2.72;;;0.68;;
32780;SDS011;19136;47.032;15.502;2022-09-20T13:26:00;0.98;;;0.30;;
32780;SDS011;19136;47.032;15.502;2022-09-20T13:28:32;0.85;;;0.40;;
32780;SDS011;19136;47.032;15.502;2022-09-20T13:33:47;1.90;;;0.50;;
32780;SDS011;19136;47.032;15.502;2022-09-20T13:36:13;3.20;;;0.52;;
32780;SDS011;19136;47.032;15.502;2022-09-20T13:38:38;0.32;;;0.30;;
32780;SDS011;19136;47.032;15.502;2022-09-20T13:41:05;0.10;;;0.10;;
32780;SDS011;19136;47.032;15.502;2022-09-20T13:43:37;0.13;;;0.10;;
32780;SDS011;19136;47.032;15.502;2022-09-20T13:46:14;0.93;;;0.30;;
32780;SDS011;19136;47.032;15.502;2022-09-20T13:48:42;1.95;;;0.30;;
32780;SDS011;19136;47.032;15.502;2022-09-20T13:51:17;1.25;;;0.30;;
32780;SDS011;19136;47.032;15.502;2022-09-20T13:53:52;0.95;;;0.20;;
32780;SDS011;19136;47.032;15.502;2022-09-20T13:58:47;0.10;;;0.10;;
32780;SDS011;19136;47.032;15.502;2022-09-20T14:01:22;0.32;;;0.20;;
32780;SDS011;19136;47.032;15.502;2022-09-20T14:03:52;0.95;;;0.28;;
32780;SDS011;19136;47.032;15.502;2022-09-20T14:06:20;0.85;;;0.50;;
32780;SDS011;19136;47.032;15.502;2022-09-20T14:08:51;0.30;;;0.10;;
32780;SDS011;19136;47.032;15.502;2022-09-20T14:11:21;1.48;;;0.40;;
32780;SDS011;19136;47.032;15.502;2022-09-20T14:13:51;0.93;;;0.40;;
32780;SDS011;19136;47.032;15.502;2022-09-20T14:16:23;0.70;;;0.30;;
32780;SDS011;19136;47.032;15.502;2022-09-20T14:18:52;0.93;;;0.32;;
32780;SDS011;19136;47.032;15.502;2022-09-20T14:21:23;0.57;;;0.30;;
32780;SDS011;19136;47.032;15.502;2022-09-20T14:23:54;0.85;;;0.30;;
32780;SDS011;19136;47.032;15.502;2022-09-20T14:26:26;1.77;;;0.82;;
32780;SDS011;19136;47.032;15.502;2022-09-20T14:28:54;1.90;;;0.50;;
32780;SDS011;19136;47.032;15.502;2022-09-20T14:31:26;1.48;;;0.25;;
32780;SDS011;19136;47.032;15.502;2022-09-20T14:33:58;0.80;;;0.30;;
32780;SDS011;19136;47.032;15.502;2022-09-20T14:36:26;0.75;;;0.38;;
32780;SDS011;19136;47.032;15.502;2022-09-20T14:38:53;1.45;;;0.80;;
32780;SDS011;19136;47.032;15.502;2022-09-20T14:41:32;1.42;;;0.40;;
32780;SDS011;19136;47.032;15.502;2022-09-20T14:44:00;0.30;;;0.20;;
32780;SDS011;19136;47.032;15.502;2022-09-20T14:46:28;0.38;;;0.28;;
32780;SDS011;19136;47.032;15.502;2022-09-20T14:51:51;2.15;;;0.80;;
32780;SDS011;19136;47.032;15.502;2022-09-20T14:54:24;1.70;;;0.65;;
32780;SDS011;19136;47.032;15.502;2022-09-20T14:56:52;0.95;;;0.40;;
32780;SDS011;19136;47.032;15.502;2022-09-20T15:02:30;1.42;;;0.40;;
32780;SDS011;19136;47.032;15.502;2022-09-20T15:04:31;1.17;;;0.30;;
32780;SDS011;19136;47.032;15.502;2022-09-20T15:07:00;0.50;;;0.40;;
32780;SDS011;19136;47.032;15.502;2022-09-20T15:09:27;0.60;;;0.50;;
32780;SDS011;19136;47.032;15.502;2022-09-20T15:14:25;1.27;;;0.50;;
32780;SDS011;19136;47.032;15.502;2022-09-20T15:16:50;2.08;;;0.68;;
32780;SDS011;19136;47.032;15.502;2022-09-20T15:19:16;1.60;;;0.40;;
32780;SDS011;19136;47.032;15.502;2022-09-20T15:21:41;1.27;;;0.50;;
32780;SDS011;19136;47.032;15.502;2022-09-20T15:24:07;1.10;;;0.40;;
32780;SDS011;19136;47.032;15.502;2022-09-20T15:26:32;1.33;;;0.40;;
32780;SDS011;19136;47.032;15.502;2022-09-20T15:28:58;2.92;;;0.35;;
32780;SDS011;19136;47.032;15.502;2022-09-20T15:31:25;0.57;;;0.30;;
32780;SDS011;19136;47.032;15.502;2022-09-20T15:33:51;1.35;;;0.60;;
32780;SDS011;19136;47.032;15.502;2022-09-20T15:36:17;0.98;;;0.30;;
32780;SDS011;19136;47.032;15.502;2022-09-20T15:38:42;0.63;;;0.35;;
32780;SDS011;19136;47.032;15.502;2022-09-20T15:41:09;0.65;;;0.30;;
32780;SDS011;19136;47.032;15.502;2022-09-20T15:43:35;2.60;;;0.40;;
32780;SDS011;19136;47.032;15.502;2022-09-20T15:46:15;1.70;;;0.50;;
32780;SDS011;19136;47.032;15.502;2022-09-20T15:48:44;1.75;;;0.73;;
32780;SDS011;19136;47.032;15.502;2022-09-20T15:51:10;2.50;;;0.90;;
32780;SDS011;19136;47.032;15.502;2022-09-20T15:53:40;3.03;;;0.88;;
32780;SDS011;19136;47.032;15.502;2022-09-20T15:56:16;2.05;;;0.60;;
32780;SDS011;19136;47.032;15.502;2022-09-20T15:58:56;4.43;;;0.80;;
32780;SDS011;19136;47.032;15.502;2022-09-20T16:01:29;1.23;;;0.50;;
32780;SDS011;19136;47.032;15.502;2022-09-20T16:04:15;0.77;;;0.38;;
32780;SDS011;19136;47.032;15.502;2022-09-20T16:06:43;2.47;;;0.60;;
32780;SDS011;19136;47.032;15.502;2022-09-20T16:09:10;0.60;;;0.40;;
32780;SDS011;19136;47.032;15.502;2022-09-20T16:11:36;2.17;;;0.93;;
32780;SDS011;19136;47.032;15.502;2022-09-20T16:14:02;2.08;;;0.65;;
32780;SDS011;19136;47.032;15.502;2022-09-20T16:16:29;1.00;;;0.55;;
32780;SDS011;19136;47.032;15.502;2022-09-20T16:18:55;1.73;;;0.93;;
32780;SDS011;19136;47.032;15.502;2022-09-20T16:21:40;2.20;;;0.90;;
32780;SDS011;19136;47.032;15.502;2022-09-20T16:24:07;3.60;;;1.85;;
32780;SDS011;19136;47.032;15.502;2022-09-20T16:26:33;4.20;;;1.17;;
32780;SDS011;19136;47.032;15.502;2022-09-20T16:28:59;1.25;;;0.60;;
32780;SDS011;19136;47.032;15.502;2022-09-20T16:34:00;1.55;;;0.60;;
32780;SDS011;19136;47.032;15.502;2022-09-20T16:36:27;1.35;;;0.65;;
32780;SDS011;19136;47.032;15.502;2022-09-20T16:38:52;2.38;;;0.63;;
32780;SDS011;19136;47.032;15.502;2022-09-20T16:41:25;3.30;;;0.70;;
32780;SDS011;19136;47.032;15.502;2022-09-20T16:43:52;1.40;;;0.63;;
32780;SDS011;19136;47.032;15.502;2022-09-20T16:46:21;2.42;;;0.82;;
32780;SDS011;19136;47.032;15.502;2022-09-20T16:48:51;1.45;;;0.65;;
32780;SDS011;19136;47.032;15.502;2022-09-20T16:51:20;1.42;;;0.85;;
32780;SDS011;19136;47.032;15.502;2022-09-20T16:53:49;3.90;;;0.82;;
32780;SDS011;19136;47.032;15.502;2022-09-20T16:56:16;3.33;;;0.93;;
32780;SDS011;19136;47.032;15.502;2022-09-20T16:58:52;2.05;;;1.02;;
32780;SDS011;19136;47.032;15.502;2022-09-20T17:01:18;3.10;;;1.50;;
32780;SDS011;19136;47.032;15.502;2022-09-20T17:03:44;2.67;;;1.63;;
32780;SDS011;19136;47.032;15.502;2022-09-20T17:06:11;4.88;;;2.60;;
32780;SDS011;19136;47.032;15.502;2022-09-20T17:08:38;8.40;;;3.58;;
32780;SDS011;19136;47.032;15.502;2022-09-20T17:11:11;6.55;;;1.13;;
32780;SDS011;19136;47.032;15.502;2022-09-20T17:13:39;4.45;;;2.50;;
32780;SDS011;19136;47.032;15.502;2022-09-20T17:16:16;8.45;;;4.40;;
32780;SDS011;19136;47.032;15.502;2022-09-20T17:18:42;6.63;;;1.05;;
32780;SDS011;19136;47.032;15.502;2022-09-20T17:23:38;1.58;;;0.82;;
32780;SDS011;19136;47.032;15.502;2022-09-20T17:26:15;1.50;;;0.70;;
32780;SDS011;19136;47.032;15.502;2022-09-20T17:28:43;2.60;;;1.23;;
32780;SDS011;19136;47.032;15.502;2022-09-20T17:31:14;3.65;;;1.50;;
32780;SDS011;19136;47.032;15.502;2022-09-20T17:33:40;2.83;;;1.48;;
32780;SDS011;19136;47.032;15.502;2022-09-20T17:36:07;5.97;;;1.40;;
32780;SDS011;19136;47.032;15.502;2022-09-20T17:38:40;2.55;;;1.33;;
32780;SDS011;19136;47.032;15.502;2022-09-20T17:41:07;5.57;;;1.50;;
32780;SDS011;19136;47.032;15.502;2022-09-20T17:43:36;2.60;;;1.13;;
32780;SDS011;19136;47.032;15.502;2022-09-20T17:46:10;2.47;;;0.82;;
32780;SDS011;19136;47.032;15.502;2022-09-20T17:48:41;2.72;;;1.13;;
32780;SDS011;19136;47.032;15.502;2022-09-20T17:51:12;2.42;;;1.17;;
32780;SDS011;19136;47.032;15.502;2022-09-20T17:53:39;9.32;;;2.58;;
32780;SDS011;19136;47.032;15.502;2022-09-20T17:56:04;1.20;;;0.65;;
32780;SDS011;19136;47.032;15.502;2022-09-20T17:58:32;1.67;;;0.90;;
32780;SDS011;19136;47.032;15.502;2022-09-20T18:01:05;1.95;;;0.73;;
32780;SDS011;19136;47.032;15.502;2022-09-20T18:03:39;6.47;;;1.20;;
32780;SDS011;19136;47.032;15.502;2022-09-20T18:06:16;1.92;;;0.80;;
32780;SDS011;19136;47.032;15.502;2022-09-20T18:08:44;2.25;;;0.80;;
32780;SDS011;19136;47.032;15.502;2022-09-20T18:11:14;2.17;;;0.88;;
32780;SDS011;19136;47.032;15.502;2022-09-20T18:13:40;2.05;;;0.90;;
32780;SDS011;19136;47.032;15.502;2022-09-20T18:16:09;2.50;;;0.75;;
32780;SDS011;19136;47.032;15.502;2022-09-20T18:18:36;3.97;;;0.80;;
32780;SDS011;19136;47.032;15.502;2022-09-20T18:23:34;3.30;;;1.30;;
32780;SDS011;19136;47.032;15.502;2022-09-20T18:26:04;3.08;;;1.80;;
32780;SDS011;19136;47.032;15.502;2022-09-20T18:28:46;3.60;;;2.00;;
32780;SDS011;19136;47.032;15.502;2022-09-20T18:31:11;3.08;;;1.70;;
32780;SDS011;19136;47.032;15.502;2022-09-20T18:33:37;9.25;;;1.42;;
32780;SDS011;19136;47.032;15.502;2022-09-20T18:36:04;3.30;;;1.67;;
32780;SDS011;19136;47.032;15.502;2022-09-20T18:38:30;4.03;;;1.40;;
32780;SDS011;19136;47.032;15.502;2022-09-20T18:40:57;4.38;;;1.67;;
32780;SDS011;19136;47.032;15.502;2022-09-20T18:43:28;2.83;;;1.45;;
32780;SDS011;19136;47.032;15.502;2022-09-20T18:45:55;5.57;;;2.22;;
32780;SDS011;19136;47.032;15.502;2022-09-20T18:48:21;6.20;;;2.70;;
32780;SDS011;19136;47.032;15.502;2022-09-20T18:51:24;8.50;;;2.67;;
32780;SDS011;19136;47.032;15.502;2022-09-20T18:53:40;7.80;;;3.20;;
32780;SDS011;19136;47.032;15.502;2022-09-20T18:58:31;6.95;;;3.83;;
32780;SDS011;19136;47.032;15.502;2022-09-20T19:03:56;12.98;;;5.10;;
32780;SDS011;19136;47.032;15.502;2022-09-20T19:06:29;12.20;;;5.10;;
32780;SDS011;19136;47.032;15.502;2022-09-20T19:09:11;9.57;;;4.82;;
32780;SDS011;19136;47.032;15.502;2022-09-20T19:11:52;9.32;;;4.22;;
32780;SDS011;19136;47.032;15.502;2022-09-20T19:14:27;6.83;;;3.03;;
32780;SDS011;19136;47.032;15.502;2022-09-20T19:17:00;10.05;;;3.28;;
32780;SDS011;19136;47.032;15.502;2022-09-20T19:22:30;7.07;;;2.50;;
32780;SDS011;19136;47.032;15.502;2022-09-20T19:26:02;2.78;;;1.55;;
32780;SDS011;19136;47.032;15.502;2022-09-20T19:28:12;3.35;;;1.42;;
32780;SDS011;19136;47.032;15.502;2022-09-20T19:30:38;9.77;;;4.20;;
32780;SDS011;19136;47.032;15.502;2022-09-20T19:33:11;8.88;;;4.88;;
32780;SDS011;19136;47.032;15.502;2022-09-20T19:35:40;7.63;;;5.00;;
32780;SDS011;19136;47.032;15.502;2022-09-20T19:44:32;7.50;;;3.55;;
32780;SDS011;19136;47.032;15.502;2022-09-20T19:50:14;8.20;;;3.22;;
32780;SDS011;19136;47.032;15.502;2022-09-20T19:53:11;6.72;;;3.22;;
32780;SDS011;19136;47.032;15.502;2022-09-20T19:55:38;19.92;;;7.13;;
32780;SDS011;19136;47.032;15.502;2022-09-20T19:58:04;10.93;;;6.05;;
32780;SDS011;19136;47.032;15.502;2022-09-20T20:00:30;6.28;;;2.90;;
32780;SDS011;19136;47.032;15.502;2022-09-20T20:02:57;5.05;;;2.42;;
32780;SDS011;19136;47.032;15.502;2022-09-20T20:05:22;2.83;;;1.25;;
32780;SDS011;19136;47.032;15.502;2022-09-20T20:16:37;2.67;;;0.57;;
32780;SDS011;19136;47.032;15.502;2022-09-20T20:22:08;2.00;;;0.57;;
32780;SDS011;19136;47.032;15.502;2022-09-20T20:24:50;2.78;;;0.43;;
32780;SDS011;19136;47.032;15.502;2022-09-20T20:27:17;0.70;;;0.45;;
32780;SDS011;19136;47.032;15.502;2022-09-20T20:29:43;3.30;;;0.55;;
32780;SDS011;19136;47.032;15.502;2022-09-20T20:32:09;1.55;;;0.47;;
32780;SDS011;19136;47.032;15.502;2022-09-20T20:34:35;1.80;;;0.45;;
32780;SDS011;19136;47.032;15.502;2022-09-20T20:37:01;2.58;;;0.60;;
32780;SDS011;19136;47.032;15.502;2022-09-20T20:39:28;0.80;;;0.40;;
32780;SDS011;19136;47.032;15.502;2022-09-20T20:41:55;1.50;;;0.60;;
32780;SDS011;19136;47.032;15.502;2022-09-20T20:44:25;3.20;;;1.52;;
32780;SDS011;19136;47.032;15.502;2022-09-20T20:46:54;6.97;;;2.17;;
32780;SDS011;19136;47.032;15.502;2022-09-20T20:49:19;5.72;;;2.00;;
32780;SDS011;19136;47.032;15.502;2022-09-20T20:51:45;5.07;;;1.67;;
32780;SDS011;19136;47.032;15.502;2022-09-20T20:54:11;6.22;;;2.05;;
32780;SDS011;19136;47.032;15.502;2022-09-20T20:56:37;6.65;;;1.75;;
32780;SDS011;19136;47.032;15.502;2022-09-20T20:59:02;5.63;;;1.60;;
32780;SDS011;19136;47.032;15.502;2022-09-20T21:01:29;6.75;;;2.30;;
32780;SDS011;19136;47.032;15.502;2022-09-20T21:03:56;5.82;;;1.90;;
32780;SDS011;19136;47.032;15.502;2022-09-20T21:06:23;6.28;;;2.40;;
32780;SDS011;19136;47.032;15.502;2022-09-20T21:08:50;7.50;;;2.03;;